createdAt,value
2019-03-20T00:00:20.449Z,81.87
2019-03-20T00:02:49.928Z,83.53
2019-03-20T00:05:18.773Z,82.33
2019-03-20T00:07:47.582Z,79.33
2019-03-20T00:10:16.904Z,73.00
2019-03-20T00:12:45.599Z,76.43
2019-03-20T00:15:15.557Z,73.23
2019-03-20T00:17:44.526Z,74.73
2019-03-20T00:20:14.689Z,75.67
2019-03-20T00:22:43.619Z,62.20
2019-03-20T00:25:12.796Z,72.93
2019-03-20T00:27:41.841Z,74.93
2019-03-20T00:30:17.823Z,73.53
2019-03-20T00:32:46.786Z,70.23
2019-03-20T00:35:15.825Z,71.10
2019-03-20T00:37:44.742Z,67.90
2019-03-20T00:40:14.872Z,74.00
2019-03-20T00:42:43.746Z,72.73
2019-03-20T00:45:14.530Z,79.33
2019-03-20T00:47:43.333Z,65.90
2019-03-20T00:50:17.346Z,64.63
2019-03-20T00:52:46.233Z,66.17
2019-03-20T00:55:16.407Z,62.97
2019-03-20T00:57:45.367Z,72.83
2019-03-20T01:00:16.524Z,69.83
2019-03-20T01:02:45.270Z,69.13
2019-03-20T01:05:14.970Z,65.37
2019-03-20T01:07:44.435Z,63.30
2019-03-20T01:10:16.488Z,65.43
2019-03-20T01:12:45.231Z,66.37
2019-03-20T01:15:14.534Z,59.23
2019-03-20T01:17:43.764Z,62.70
2019-03-20T01:20:17.323Z,65.97
2019-03-20T01:22:46.311Z,67.33
2019-03-20T01:25:16.091Z,63.57
2019-03-20T01:27:44.784Z,58.50
2019-03-20T01:30:34.405Z,62.33
2019-03-20T01:33:08.149Z,68.03
2019-03-20T01:35:37.132Z,69.13
2019-03-20T01:38:06.734Z,95.30
2019-03-20T01:40:35.458Z,83.30
2019-03-20T01:43:04.782Z,81.50
2019-03-20T01:45:33.739Z,77.83
2019-03-20T01:48:02.512Z,74.73
2019-03-20T01:50:31.357Z,70.83
2019-03-20T01:53:00.179Z,74.23
2019-03-20T01:55:28.913Z,72.40
2019-03-20T01:57:57.592Z,72.20
2019-03-20T02:00:26.698Z,71.03
2019-03-20T02:02:55.375Z,76.40
2019-03-20T02:05:34.738Z,71.97
2019-03-20T02:07:54.688Z,72.50
2019-03-20T02:10:23.521Z,73.60
2019-03-20T02:12:52.154Z,66.47
2019-03-20T02:15:20.858Z,62.53
2019-03-20T02:17:49.551Z,65.87
2019-03-20T02:20:21.904Z,73.77
2019-03-20T02:22:50.748Z,69.23
2019-03-20T02:25:19.494Z,65.70
2019-03-20T02:27:48.139Z,61.60
2019-03-20T02:30:18.917Z,64.47
2019-03-20T02:32:47.874Z,70.13
2019-03-20T02:35:16.877Z,68.50
2019-03-20T02:37:45.763Z,61.70
2019-03-20T02:40:17.513Z,67.90
2019-03-20T02:42:46.367Z,64.20
2019-03-20T02:45:18.346Z,65.03
2019-03-20T02:47:47.214Z,70.77
2019-03-20T02:50:16.095Z,67.17
2019-03-20T02:52:44.883Z,70.63
2019-03-20T02:55:13.999Z,66.67
2019-03-20T02:57:42.768Z,60.43
2019-03-20T03:00:18.870Z,61.83
2019-03-20T03:02:47.645Z,68.97
2019-03-20T03:05:17.561Z,72.37
2019-03-20T03:07:46.379Z,65.07
2019-03-20T03:10:19.663Z,69.10
2019-03-20T03:12:48.441Z,66.73
2019-03-20T03:15:17.373Z,65.07
2019-03-20T03:17:46.156Z,65.60
2019-03-20T03:20:15.714Z,60.70
2019-03-20T03:22:44.832Z,64.30
2019-03-20T03:25:14.642Z,62.63
2019-03-20T03:27:43.519Z,64.30
2019-03-20T03:30:14.837Z,60.03
2019-03-20T03:32:43.676Z,69.23
2019-03-20T03:35:17.405Z,61.10
2019-03-20T03:37:43.370Z,57.10
2019-03-20T03:40:16.519Z,66.53
2019-03-20T03:42:45.323Z,62.67
2019-03-20T03:45:15.640Z,64.87
2019-03-20T03:47:44.568Z,60.63
2019-03-20T03:50:13.665Z,58.43
2019-03-20T03:52:42.371Z,57.90
2019-03-20T03:55:15.026Z,54.43
2019-03-20T03:57:44.644Z,55.33
2019-03-20T04:00:21.085Z,67.60
2019-03-20T04:02:49.992Z,64.00
2019-03-20T04:05:18.812Z,61.37
2019-03-20T04:07:47.643Z,65.37
2019-03-20T04:10:18.445Z,65.73
2019-03-20T04:12:47.205Z,60.77
2019-03-20T04:15:16.723Z,53.37
2019-03-20T04:17:45.461Z,68.53
2019-03-20T04:20:21.819Z,58.27
2019-03-20T04:22:50.580Z,61.83
2019-03-20T04:25:19.422Z,60.10
2019-03-20T04:27:48.263Z,59.07
2019-03-20T04:30:18.277Z,57.00
2019-03-20T04:32:47.056Z,58.73
2019-03-20T04:35:16.130Z,57.60
2019-03-20T04:37:44.953Z,60.20
2019-03-20T04:40:18.332Z,72.53
2019-03-20T04:42:47.100Z,71.63
2019-03-20T04:45:16.493Z,65.57
2019-03-20T04:47:45.240Z,62.53
2019-03-20T04:50:17.564Z,70.20
2019-03-20T04:52:46.310Z,129.67
2019-03-20T04:55:15.069Z,150.97
2019-03-20T04:57:45.797Z,116.60
2019-03-20T05:00:23.886Z,83.40
2019-03-20T05:02:52.644Z,71.90
2019-03-20T05:05:21.393Z,66.03
2019-03-20T05:07:50.196Z,54.07
2019-03-20T05:10:20.058Z,69.20
2019-03-20T05:12:48.823Z,65.73
2019-03-20T05:15:17.462Z,61.70
2019-03-20T05:17:46.233Z,55.23
2019-03-20T05:20:18.973Z,51.70
2019-03-20T05:22:47.851Z,59.47
2019-03-20T05:25:16.791Z,86.63
2019-03-20T05:27:45.408Z,93.23
2019-03-20T05:30:17.646Z,114.27
2019-03-20T05:32:46.415Z,99.87
2019-03-20T05:35:15.035Z,96.80
2019-03-20T05:37:43.783Z,79.47
2019-03-20T05:40:14.904Z,61.30
2019-03-20T05:42:43.816Z,53.93
2019-03-20T05:45:14.099Z,62.13
2019-03-20T05:47:42.950Z,59.53
2019-03-20T05:50:13.441Z,51.70
2019-03-20T05:52:42.241Z,50.27
2019-03-20T05:55:11.099Z,50.97
2019-03-20T05:57:39.844Z,48.50
2019-03-20T06:00:11.794Z,49.73
2019-03-20T06:02:40.559Z,39.33
2019-03-20T06:05:09.464Z,47.00
2019-03-20T06:07:38.366Z,44.97
2019-03-20T06:10:12.368Z,41.57
2019-03-20T06:12:41.685Z,40.77
2019-03-20T06:15:10.496Z,44.70
2019-03-20T06:17:39.374Z,41.70
2019-03-20T06:20:17.202Z,43.87
2019-03-20T06:22:45.946Z,39.60
2019-03-20T06:25:15.579Z,38.67
2019-03-20T06:27:44.370Z,38.97
2019-03-20T06:30:21.109Z,40.77
2019-03-20T06:32:49.749Z,43.13
2019-03-20T06:35:18.561Z,39.77
2019-03-20T06:37:47.379Z,32.33
2019-03-20T06:40:19.719Z,36.37
2019-03-20T06:42:48.662Z,31.67
2019-03-20T06:45:21.745Z,41.77
2019-03-20T06:47:50.674Z,38.60
2019-03-20T06:50:23.084Z,32.37
2019-03-20T06:52:51.921Z,32.20
2019-03-20T06:55:20.726Z,31.47
2019-03-20T06:57:49.523Z,31.40
2019-03-20T07:00:42.305Z,38.10
2019-03-20T07:03:35.036Z,20.10
2019-03-20T07:06:06.787Z,23.53
2019-03-20T07:08:41.497Z,67.17
2019-03-20T07:11:10.883Z,17.87
2019-03-20T07:13:39.729Z,46.77
2019-03-20T07:16:08.527Z,24.93
2019-03-20T07:18:37.284Z,19.07
2019-03-20T07:21:06.118Z,17.80
2019-03-20T07:23:34.738Z,19.42
2019-03-20T07:26:03.667Z,20.62
2019-03-20T07:28:34.426Z,17.75
2019-03-20T07:31:14.296Z,19.05
2019-03-20T07:33:33.736Z,15.85
2019-03-20T07:36:02.495Z,16.93
2019-03-20T07:38:31.173Z,22.75
2019-03-20T07:41:00.065Z,17.52
2019-03-20T07:43:28.856Z,21.85
2019-03-20T07:45:57.717Z,17.98
2019-03-20T07:48:26.488Z,20.48
2019-03-20T07:50:55.182Z,19.85
2019-03-20T07:53:23.939Z,18.23
2019-03-20T07:55:52.818Z,16.77
2019-03-20T07:58:21.541Z,14.85
2019-03-20T08:00:50.354Z,14.65
2019-03-20T08:03:19.012Z,16.23
2019-03-20T08:05:47.878Z,14.98
2019-03-20T08:08:16.776Z,16.27
2019-03-20T08:10:45.489Z,17.00
2019-03-20T08:13:14.207Z,14.73
2019-03-20T08:15:42.971Z,17.73
2019-03-20T08:18:11.942Z,18.20
2019-03-20T08:20:41.344Z,13.48
2019-03-20T08:23:10.341Z,17.40
2019-03-20T08:25:39.299Z,17.02
2019-03-20T08:28:08.122Z,11.45
2019-03-20T08:30:37.146Z,12.13
2019-03-20T08:33:06.006Z,16.02
2019-03-20T08:35:34.891Z,11.90
2019-03-20T08:38:03.702Z,10.60
2019-03-20T08:40:32.901Z,11.43
2019-03-20T08:43:01.683Z,16.90
2019-03-20T08:45:30.660Z,14.03
2019-03-20T08:47:59.592Z,11.73
2019-03-20T08:50:28.422Z,11.12
2019-03-20T08:52:57.161Z,18.37
2019-03-20T08:55:26.215Z,11.05
2019-03-20T08:57:55.012Z,11.20
2019-03-20T09:00:26.031Z,10.80
2019-03-20T09:02:54.941Z,13.60
2019-03-20T09:05:23.885Z,12.80
2019-03-20T09:07:52.947Z,14.55
2019-03-20T09:10:22.995Z,12.73
2019-03-20T09:12:51.767Z,12.37
2019-03-20T09:15:21.511Z,14.18
2019-03-20T09:17:50.459Z,10.82
2019-03-20T09:20:21.364Z,11.33
2019-03-20T09:22:50.357Z,10.23
2019-03-20T09:25:27.142Z,10.85
2019-03-20T09:27:56.000Z,11.35
2019-03-20T09:30:25.742Z,10.80
2019-03-20T09:32:54.554Z,11.00
2019-03-20T09:35:23.282Z,11.75
2019-03-20T09:37:53.704Z,9.88
2019-03-20T09:40:25.527Z,9.78
2019-03-20T09:42:54.316Z,8.13
2019-03-20T09:45:24.171Z,8.83
2019-03-20T09:47:53.176Z,11.97
2019-03-20T09:50:23.932Z,8.98
2019-03-20T09:52:52.718Z,9.15
2019-03-20T09:55:21.565Z,8.00
2019-03-20T09:57:50.518Z,11.73
2019-03-20T10:00:27.881Z,11.97
2019-03-20T10:02:56.688Z,6.10
2019-03-20T10:05:25.508Z,8.83
2019-03-20T10:07:54.333Z,8.35
2019-03-20T10:10:24.211Z,7.33
2019-03-20T10:12:53.475Z,8.23
2019-03-20T10:15:26.903Z,9.95
2019-03-20T10:17:55.861Z,8.55
2019-03-20T10:20:24.884Z,9.53
2019-03-20T10:22:53.832Z,15.38
2019-03-20T10:25:22.822Z,14.23
2019-03-20T10:27:52.169Z,9.95
2019-03-20T10:30:26.270Z,7.72
2019-03-20T10:32:55.463Z,5.62
2019-03-20T10:35:25.849Z,7.80
2019-03-20T10:37:54.911Z,12.98
2019-03-20T10:40:24.728Z,6.30
2019-03-20T10:42:53.753Z,10.60
2019-03-20T10:45:23.819Z,6.55
2019-03-20T10:47:53.374Z,10.15
2019-03-20T10:50:26.618Z,8.08
2019-03-20T10:52:55.388Z,8.23
2019-03-20T10:55:24.275Z,7.65
2019-03-20T10:57:53.305Z,11.25
2019-03-20T11:00:28.946Z,8.13
2019-03-20T11:02:58.029Z,11.68
2019-03-20T11:05:27.006Z,7.35
2019-03-20T11:07:55.959Z,9.80
2019-03-20T11:10:25.725Z,8.43
2019-03-20T11:12:54.467Z,11.30
2019-03-20T11:15:24.379Z,10.40
2019-03-20T11:17:53.092Z,7.00
2019-03-20T11:20:25.995Z,10.00
2019-03-20T11:22:54.722Z,12.57
2019-03-20T11:25:24.398Z,10.17
2019-03-20T11:27:53.128Z,10.33
2019-03-20T11:30:31.626Z,9.60
2019-03-20T11:33:00.405Z,10.47
2019-03-20T11:35:29.245Z,7.53
2019-03-20T11:38:00.795Z,8.53
2019-03-20T11:40:35.155Z,10.00
2019-03-20T11:43:04.336Z,15.43
2019-03-20T11:45:32.974Z,15.10
2019-03-20T11:48:01.825Z,6.77
2019-03-20T11:50:36.249Z,10.03
2019-03-20T11:53:06.117Z,8.93
2019-03-20T11:55:35.063Z,8.27
2019-03-20T11:58:04.309Z,12.83
2019-03-20T12:00:33.236Z,12.00
2019-03-20T12:03:01.998Z,10.97
2019-03-20T12:05:30.803Z,10.73
2019-03-20T12:07:59.618Z,9.93
2019-03-20T12:10:32.234Z,6.83
2019-03-20T12:13:01.127Z,9.03
2019-03-20T12:15:30.008Z,7.33
2019-03-20T12:17:58.851Z,21.13
2019-03-20T12:20:27.657Z,11.00
2019-03-20T12:22:56.437Z,11.27
2019-03-20T12:25:29.290Z,13.80
2019-03-20T12:27:58.121Z,9.43
2019-03-20T12:30:29.295Z,7.77
2019-03-20T12:32:58.073Z,8.23
2019-03-20T12:35:32.066Z,8.87
2019-03-20T12:38:00.830Z,8.60
2019-03-20T12:40:31.464Z,7.23
2019-03-20T12:43:00.366Z,6.30
2019-03-20T12:45:33.795Z,12.73
2019-03-20T12:48:02.569Z,8.97
2019-03-20T12:50:31.561Z,8.43
2019-03-20T12:53:01.730Z,9.57
2019-03-20T12:55:31.385Z,10.73
2019-03-20T12:58:00.148Z,9.10
2019-03-20T13:00:29.242Z,6.97
2019-03-20T13:02:57.924Z,7.07
2019-03-20T13:05:26.667Z,6.17
2019-03-20T13:08:01.848Z,9.87
2019-03-20T13:10:27.565Z,7.43
2019-03-20T13:12:56.669Z,12.27
2019-03-20T13:15:27.541Z,8.60
2019-03-20T13:17:57.128Z,9.77
2019-03-20T13:20:26.410Z,11.93
2019-03-20T13:22:58.280Z,9.17
2019-03-20T13:25:27.635Z,12.43
2019-03-20T13:27:56.867Z,7.93
2019-03-20T13:30:43.665Z,10.87
2019-03-20T13:33:12.766Z,5.57
2019-03-20T13:35:41.674Z,9.63
2019-03-20T13:38:10.493Z,6.73
2019-03-20T13:40:39.191Z,12.30
2019-03-20T13:43:08.110Z,8.47
2019-03-20T13:45:36.766Z,6.20
2019-03-20T13:48:06.096Z,9.17
2019-03-20T13:50:34.805Z,7.87
2019-03-20T13:53:03.474Z,8.67
2019-03-20T13:55:32.402Z,12.53
2019-03-20T13:58:01.504Z,7.03
2019-03-20T14:00:30.321Z,9.90
2019-03-20T14:02:59.183Z,11.90
2019-03-20T14:05:27.978Z,10.87
2019-03-20T14:07:56.665Z,8.70
2019-03-20T14:10:26.860Z,9.37
2019-03-20T14:12:55.635Z,10.70
2019-03-20T14:15:24.417Z,35.53
2019-03-20T14:17:53.224Z,8.77
2019-03-20T14:20:27.896Z,20.30
2019-03-20T14:22:56.702Z,11.27
2019-03-20T14:25:25.840Z,12.63
2019-03-20T14:27:54.736Z,12.87
2019-03-20T14:30:28.417Z,8.53
2019-03-20T14:32:57.190Z,8.57
2019-03-20T14:35:25.946Z,8.60
2019-03-20T14:37:54.749Z,8.33
2019-03-20T14:40:37.091Z,5.47
2019-03-20T14:43:04.685Z,6.63
2019-03-20T14:45:33.336Z,7.57
2019-03-20T14:48:02.179Z,9.73
2019-03-20T14:50:32.154Z,5.80
2019-03-20T14:53:00.864Z,9.58
2019-03-20T14:55:29.714Z,12.20
2019-03-20T14:57:58.514Z,10.20
2019-03-20T15:00:32.358Z,8.07
2019-03-20T15:03:01.270Z,10.27
2019-03-20T15:05:30.238Z,19.23
2019-03-20T15:07:59.147Z,8.20
2019-03-20T15:10:28.524Z,8.97
2019-03-20T15:12:57.444Z,8.17
2019-03-20T15:15:35.067Z,10.33
2019-03-20T15:18:03.930Z,11.77
2019-03-20T15:20:32.612Z,10.30
2019-03-20T15:23:01.453Z,9.13
2019-03-20T15:25:30.302Z,7.20
2019-03-20T15:27:58.937Z,10.70
2019-03-20T15:30:29.711Z,8.13
2019-03-20T15:32:58.580Z,11.50
2019-03-20T15:35:27.567Z,25.10
2019-03-20T15:37:56.481Z,6.77
2019-03-20T15:40:28.819Z,19.30
2019-03-20T15:42:57.994Z,9.87
2019-03-20T15:45:27.095Z,6.80
2019-03-20T15:47:56.085Z,6.33
2019-03-20T15:50:26.581Z,9.10
2019-03-20T15:52:55.796Z,8.23
2019-03-20T15:55:27.439Z,9.67
2019-03-20T15:57:56.610Z,14.63
2019-03-20T16:00:25.385Z,7.70
2019-03-20T16:03:03.128Z,15.47
2019-03-20T16:05:32.897Z,6.63
2019-03-20T16:08:01.787Z,10.87
2019-03-20T16:10:30.599Z,8.83
2019-03-20T16:12:59.360Z,11.53
2019-03-20T16:15:28.236Z,7.47
2019-03-20T16:17:56.982Z,13.00
2019-03-20T16:20:26.014Z,11.17
2019-03-20T16:22:54.824Z,10.57
2019-03-20T16:25:24.811Z,12.07
2019-03-20T16:27:53.806Z,17.20
2019-03-20T16:30:35.041Z,10.07
2019-03-20T16:33:03.820Z,10.50
2019-03-20T16:35:32.593Z,16.77
2019-03-20T16:38:01.355Z,19.37
2019-03-20T16:40:31.263Z,13.67
2019-03-20T16:42:59.997Z,22.17
2019-03-20T16:45:30.691Z,20.47
2019-03-20T16:47:59.619Z,13.83
2019-03-20T16:50:28.434Z,17.07
2019-03-20T16:52:57.350Z,9.63
2019-03-20T16:55:26.108Z,11.10
2019-03-20T16:57:54.802Z,17.77
2019-03-20T17:00:30.964Z,19.10
2019-03-20T17:02:59.843Z,15.57
2019-03-20T17:05:29.513Z,16.20
2019-03-20T17:07:58.403Z,9.53
2019-03-20T17:10:32.695Z,12.40
2019-03-20T17:13:02.149Z,20.27
2019-03-20T17:15:33.939Z,24.60
2019-03-20T17:18:02.700Z,32.67
2019-03-20T17:20:31.458Z,34.17
2019-03-20T17:23:00.330Z,58.77
2019-03-20T17:25:29.184Z,60.97
2019-03-20T17:27:58.170Z,74.60
2019-03-20T17:30:34.815Z,61.30
2019-03-20T17:33:03.676Z,67.53
2019-03-20T17:35:32.542Z,50.03
2019-03-20T17:38:01.286Z,27.73
2019-03-20T17:40:30.071Z,32.30
2019-03-20T17:42:58.681Z,39.20
2019-03-20T17:45:29.526Z,55.33
2019-03-20T17:47:58.369Z,53.67
2019-03-20T17:50:35.948Z,73.30
2019-03-20T17:53:05.712Z,59.93
2019-03-20T17:55:34.471Z,101.73
2019-03-20T17:58:03.310Z,119.27
2019-03-20T18:00:40.615Z,112.50
2019-03-20T18:03:09.537Z,88.93
2019-03-20T18:05:38.361Z,91.60
2019-03-20T18:08:07.951Z,64.77
2019-03-20T18:10:36.979Z,67.97
2019-03-20T18:13:07.000Z,72.53
2019-03-20T18:15:36.336Z,110.87
2019-03-20T18:18:06.614Z,139.70
2019-03-20T18:20:36.121Z,192.17
2019-03-20T18:23:06.115Z,193.30
2019-03-20T18:25:34.976Z,241.57
2019-03-20T18:28:03.998Z,267.47
2019-03-20T18:30:35.188Z,205.23
2019-03-20T18:33:03.948Z,178.87
2019-03-20T18:35:32.649Z,349.07
2019-03-20T18:38:01.940Z,215.17
2019-03-20T18:40:31.057Z,135.00
2019-03-20T18:43:00.042Z,164.97
2019-03-20T18:45:28.988Z,234.33
2019-03-20T18:47:58.017Z,209.67
2019-03-20T18:50:26.846Z,262.20
2019-03-20T18:52:55.644Z,218.43
2019-03-20T18:55:25.693Z,172.50
2019-03-20T18:57:54.528Z,255.53
2019-03-20T19:00:31.272Z,260.83
2019-03-20T19:03:03.126Z,250.27
2019-03-20T19:05:34.922Z,232.80
2019-03-20T19:08:04.033Z,241.73
2019-03-20T19:10:32.892Z,261.07
2019-03-20T19:13:01.804Z,180.53
2019-03-20T19:15:30.892Z,152.80
2019-03-20T19:17:59.680Z,93.70
2019-03-20T19:20:28.519Z,137.23
2019-03-20T19:22:57.359Z,220.53
2019-03-20T19:25:26.593Z,208.60
2019-03-20T19:27:55.396Z,188.00
2019-03-20T19:30:28.396Z,199.73
2019-03-20T19:32:57.178Z,194.80
2019-03-20T19:35:26.054Z,185.43
2019-03-20T19:37:55.020Z,134.27
2019-03-20T19:40:23.886Z,234.47
2019-03-20T19:42:52.677Z,211.13
2019-03-20T19:45:21.712Z,152.00
2019-03-20T19:47:50.567Z,81.47
2019-03-20T19:50:23.785Z,71.00
2019-03-20T19:52:52.527Z,85.03
2019-03-20T19:55:21.502Z,111.07
2019-03-20T19:57:50.359Z,112.20
2019-03-20T20:00:26.698Z,106.57
2019-03-20T20:02:55.674Z,126.93
2019-03-20T20:05:24.494Z,107.33
2019-03-20T20:07:53.299Z,75.57
2019-03-20T20:10:22.384Z,79.70
2019-03-20T20:12:51.191Z,76.53
2019-03-20T20:15:28.555Z,69.17
2019-03-20T20:17:58.056Z,82.83
2019-03-20T20:20:29.130Z,58.93
2019-03-20T20:22:57.987Z,55.60
2019-03-20T20:25:26.801Z,50.53
2019-03-20T20:27:55.573Z,63.23
2019-03-20T20:30:24.710Z,51.00
2019-03-20T20:32:53.575Z,59.90
2019-03-20T20:35:22.947Z,72.17
2019-03-20T20:37:51.594Z,60.27
2019-03-20T20:40:27.464Z,66.80
2019-03-20T20:42:58.977Z,71.33
2019-03-20T20:45:27.869Z,72.30
2019-03-20T20:47:56.736Z,75.50
2019-03-20T20:50:25.630Z,80.33
2019-03-20T20:52:54.489Z,84.53
2019-03-20T20:55:24.366Z,79.33
2019-03-20T20:57:53.308Z,90.43
2019-03-20T21:00:23.319Z,78.77
2019-03-20T21:02:52.473Z,92.30
2019-03-20T21:05:21.597Z,104.80
2019-03-20T21:07:50.543Z,112.17
2019-03-20T21:10:23.222Z,101.40
2019-03-20T21:12:56.628Z,104.80
2019-03-20T21:15:34.936Z,115.37
2019-03-20T21:18:16.118Z,114.10
2019-03-20T21:20:45.479Z,109.77
2019-03-20T21:23:38.397Z,116.43
2019-03-20T21:26:18.164Z,118.80
2019-03-20T21:29:05.211Z,124.80
2019-03-20T21:31:39.245Z,120.17
2019-03-20T21:34:26.324Z,117.57
2019-03-20T21:37:31.632Z,111.40
2019-03-20T21:40:00.530Z,115.57
2019-03-20T21:42:41.361Z,115.07
2019-03-20T21:45:30.079Z,114.00
2019-03-20T21:47:59.027Z,124.53
2019-03-20T21:50:36.998Z,111.83
2019-03-20T21:53:05.663Z,109.80
2019-03-20T21:56:10.633Z,120.87
2019-03-20T21:58:42.730Z,114.73
2019-03-20T22:01:35.746Z,116.90
2019-03-20T22:04:04.801Z,113.13
2019-03-20T22:06:53.320Z,115.17
2019-03-20T22:09:25.291Z,124.47
2019-03-20T22:12:12.331Z,125.37
2019-03-20T22:14:42.693Z,112.17
2019-03-20T22:17:37.552Z,111.67
2019-03-20T22:20:14.956Z,111.97
2019-03-20T22:22:58.556Z,110.20
2019-03-20T22:25:49.630Z,100.50
2019-03-20T22:28:27.807Z,103.07
2019-03-20T22:30:56.605Z,101.17
2019-03-20T22:34:02.156Z,112.97
2019-03-20T22:36:31.382Z,108.13
2019-03-20T22:39:12.060Z,100.93
2019-03-20T22:41:58.937Z,102.67
2019-03-20T22:44:27.630Z,103.13
2019-03-20T22:47:32.673Z,97.80
2019-03-20T22:50:16.153Z,97.30
2019-03-20T22:53:11.049Z,93.77
2019-03-20T22:55:54.830Z,96.87
2019-03-20T22:58:46.120Z,92.43
2019-03-20T23:01:33.232Z,86.93
2019-03-20T23:04:13.691Z,87.97
2019-03-20T23:06:42.773Z,88.80
2019-03-20T23:09:11.632Z,82.17
2019-03-20T23:11:40.390Z,87.00
2019-03-20T23:14:09.138Z,85.93
2019-03-20T23:16:38.020Z,86.30
2019-03-20T23:19:06.832Z,90.27
2019-03-20T23:21:35.677Z,84.53
2019-03-20T23:24:04.547Z,88.70
2019-03-20T23:26:33.287Z,90.77
2019-03-20T23:29:02.191Z,85.60
2019-03-20T23:31:30.866Z,83.20
2019-03-20T23:33:59.643Z,82.83
2019-03-20T23:36:28.866Z,82.53
2019-03-20T23:38:57.519Z,83.50
2019-03-20T23:41:26.276Z,88.20
2019-03-20T23:43:55.076Z,88.67
2019-03-20T23:46:23.748Z,81.30
2019-03-20T23:49:01.508Z,83.10
2019-03-20T23:51:32.899Z,75.73
2019-03-20T23:54:01.544Z,90.20
2019-03-20T23:56:33.149Z,83.83
2019-03-20T23:59:01.916Z,76.23
